Time;durP1;ratioP1;P1;durP2;ratioP2;P2;SDS_P1;SDS_P2;PMS_P1;PMS_P2;Temp;Humidity;BMP_temperature;BMP_pressure;BME280_temperature;BME280_humidity;BME280_pressure;Samples;Min_cycle;Max_cycle;Signal;HPM_P1;HPM_P2
2024/02/14 00:01:08;;;;;;;0.93;0.93;;;4.50;99.90;;;;;;4940036;29;20467;-79
2024/02/14 00:03:36;;;;;;;3.70;0.80;;;4.50;99.90;;;;;;4940092;29;20482;-79
2024/02/14 00:06:05;;;;;;;1.43;0.70;;;4.50;99.90;;;;;;4939937;29;20453;-79
2024/02/14 00:08:32;;;;;;;0.80;0.70;;;4.60;99.90;;;;;;4939891;29;20848;-79
2024/02/14 00:10:59;;;;;;;4.33;1.07;;;4.60;99.90;;;;;;4939313;29;20486;-79
2024/02/14 00:13:26;;;;;;;2.10;0.60;;;4.70;99.90;;;;;;4939789;29;20458;-79
2024/02/14 00:15:54;;;;;;;1.37;1.13;;;4.70;99.90;;;;;;4939744;29;20447;-79
2024/02/14 00:18:22;;;;;;;0.90;0.90;;;4.70;99.90;;;;;;4939703;29;20443;-79
2024/02/14 00:20:49;;;;;;;1.03;0.70;;;4.70;99.90;;;;;;4939674;29;20465;-79
2024/02/14 00:23:16;;;;;;;1.17;1.07;;;4.70;99.90;;;;;;4945949;29;20451;-80
2024/02/14 00:25:42;;;;;;;1.63;0.63;;;4.70;99.90;;;;;;4950148;28;20451;-79
2024/02/14 00:28:09;;;;;;;0.70;0.70;;;4.70;99.90;;;;;;4939186;29;20490;-79
2024/02/14 00:30:36;;;;;;;1.00;0.70;;;4.80;99.90;;;;;;4939503;29;20467;-79
2024/02/14 00:33:04;;;;;;;0.50;0.50;;;4.80;99.90;;;;;;4939228;29;20443;-79
2024/02/14 00:35:31;;;;;;;1.10;0.60;;;4.80;99.90;;;;;;4939419;29;20450;-79
2024/02/14 00:37:57;;;;;;;1.03;0.77;;;4.80;99.90;;;;;;4939446;29;20450;-79
2024/02/14 00:40:24;;;;;;;1.17;1.00;;;4.90;99.90;;;;;;4939403;29;20471;-80
2024/02/14 00:42:51;;;;;;;4.70;1.10;;;4.80;99.90;;;;;;4939799;29;20451;-79
2024/02/14 00:45:18;;;;;;;1.07;1.07;;;4.90;99.90;;;;;;4941618;29;20455;-79
2024/02/14 00:47:44;;;;;;;2.40;0.90;;;4.90;99.90;;;;;;4941652;29;20944;-79
2024/02/14 00:50:13;;;;;;;1.27;1.17;;;4.90;99.90;;;;;;4943319;29;20478;-79
2024/02/14 00:52:40;;;;;;;1.13;1.07;;;4.90;99.90;;;;;;4941499;29;20820;-79
2024/02/14 00:55:07;;;;;;;4.23;1.00;;;5.00;99.90;;;;;;4941037;29;20447;-79
2024/02/14 00:57:34;;;;;;;1.33;1.23;;;5.00;99.90;;;;;;4941104;29;20440;-79
2024/02/14 01:00:01;;;;;;;1.50;0.80;;;5.00;99.90;;;;;;4940995;29;20474;-79
2024/02/14 01:02:28;;;;;;;0.97;0.50;;;4.90;99.90;;;;;;4940632;29;20458;-79
2024/02/14 01:04:54;;;;;;;4.90;0.70;;;4.90;99.90;;;;;;4940973;29;20447;-79
2024/02/14 01:07:22;;;;;;;1.10;1.10;;;4.80;99.90;;;;;;4940803;29;20447;-79
2024/02/14 01:09:49;;;;;;;0.87;0.70;;;4.70;99.90;;;;;;4939617;29;20495;-80
2024/02/14 01:12:16;;;;;;;2.00;1.30;;;4.60;99.90;;;;;;4941920;29;20443;-80
2024/02/14 01:14:43;;;;;;;0.47;0.47;;;4.50;99.90;;;;;;4942930;29;20463;-80
2024/02/14 01:17:10;;;;;;;0.90;0.70;;;4.40;99.90;;;;;;4942445;29;20447;-81
2024/02/14 01:19:36;;;;;;;0.80;0.80;;;4.40;99.90;;;;;;4943122;29;20459;-81
2024/02/14 01:22:03;;;;;;;1.80;0.93;;;4.40;99.90;;;;;;4942551;29;20459;-81
2024/02/14 01:24:32;;;;;;;0.70;0.70;;;4.40;99.90;;;;;;4942203;29;20439;-80
2024/02/14 01:26:58;;;;;;;1.83;1.30;;;4.40;99.90;;;;;;4942596;29;20502;-80
2024/02/14 01:29:25;;;;;;;0.90;0.73;;;4.40;99.90;;;;;;4942132;29;20495;-80
2024/02/14 01:31:52;;;;;;;3.33;1.03;;;4.30;99.90;;;;;;4942306;29;20455;-80
2024/02/14 01:34:18;;;;;;;2.27;0.90;;;4.30;99.90;;;;;;4941505;29;20957;-80
2024/02/14 01:36:45;;;;;;;1.40;0.90;;;4.30;99.90;;;;;;4941467;29;20451;-80
2024/02/14 01:39:12;;;;;;;2.20;1.30;;;4.30;99.90;;;;;;4941439;29;20493;-80
2024/02/14 01:41:46;;;;;;;1.63;1.53;;;4.20;99.90;;;;;;4941159;29;20455;-80
2024/02/14 01:44:12;;;;;;;0.60;0.50;;;4.20;99.90;;;;;;4938798;29;20482;-80
2024/02/14 01:46:39;;;;;;;0.87;0.87;;;4.20;99.90;;;;;;4938709;29;20979;-80
2024/02/14 01:49:06;;;;;;;1.13;0.80;;;4.20;99.90;;;;;;4938638;29;20491;-79
2024/02/14 01:51:33;;;;;;;1.20;1.10;;;4.30;99.90;;;;;;4939221;29;20457;-80
2024/02/14 01:54:00;;;;;;;0.90;0.63;;;4.30;99.90;;;;;;4938448;29;20455;-79
2024/02/14 01:56:28;;;;;;;0.70;0.70;;;4.30;99.90;;;;;;4938142;29;20864;-79
2024/02/14 01:58:57;;;;;;;2.30;0.63;;;4.30;99.90;;;;;;4937925;29;20945;-79
2024/02/14 02:01:25;;;;;;;0.70;0.60;;;4.30;99.90;;;;;;4938251;29;20447;-79
2024/02/14 02:03:52;;;;;;;1.17;1.00;;;4.30;99.90;;;;;;4938203;29;20455;-79
2024/02/14 02:06:18;;;;;;;2.80;0.67;;;4.40;99.90;;;;;;4938211;29;20518;-79
2024/02/14 02:08:46;;;;;;;5.47;0.73;;;4.40;99.90;;;;;;4937882;29;20487;-79
2024/02/14 02:11:13;;;;;;;0.80;0.60;;;4.30;99.90;;;;;;4937462;29;20475;-79
2024/02/14 02:13:41;;;;;;;0.97;0.70;;;4.30;99.90;;;;;;4937794;29;20451;-79
2024/02/14 02:16:09;;;;;;;0.93;0.93;;;4.40;99.90;;;;;;4937647;29;20463;-79
2024/02/14 02:18:37;;;;;;;1.23;0.90;;;4.40;99.90;;;;;;4938059;29;20474;-79
2024/02/14 02:21:06;;;;;;;1.33;1.33;;;4.40;99.90;;;;;;4936922;29;21019;-79
2024/02/14 02:23:35;;;;;;;1.43;0.70;;;4.40;99.90;;;;;;4937437;29;20458;-79
2024/02/14 02:26:01;;;;;;;2.00;0.87;;;4.40;99.90;;;;;;4937101;29;20439;-79
2024/02/14 02:28:28;;;;;;;0.80;0.57;;;4.40;99.90;;;;;;4936953;29;20546;-79
2024/02/14 02:30:55;;;;;;;0.63;0.63;;;4.50;99.90;;;;;;4937055;29;20471;-79
2024/02/14 02:33:22;;;;;;;0.97;0.70;;;4.50;99.90;;;;;;4936998;29;20499;-79
2024/02/14 02:35:49;;;;;;;2.50;0.80;;;4.40;99.90;;;;;;4937238;29;20531;-79
2024/02/14 02:38:16;;;;;;;0.83;0.70;;;4.40;99.90;;;;;;4945717;29;20467;-79
2024/02/14 02:40:44;;;;;;;0.40;0.40;;;4.40;99.90;;;;;;4946478;29;20472;-79
2024/02/14 02:43:11;;;;;;;7.30;1.37;;;4.40;99.90;;;;;;4938238;29;20458;-79
2024/02/14 02:45:38;;;;;;;1.23;0.73;;;4.30;99.90;;;;;;4940035;29;20443;-79
2024/02/14 02:48:06;;;;;;;1.13;1.13;;;4.30;99.90;;;;;;4940182;29;20447;-79
2024/02/14 02:50:33;;;;;;;1.27;0.90;;;4.40;99.90;;;;;;4940308;29;20871;-79
2024/02/14 02:53:00;;;;;;;2.77;0.70;;;4.20;99.90;;;;;;4940042;29;20451;-79
2024/02/14 02:55:27;;;;;;;0.97;0.97;;;4.10;99.90;;;;;;4939285;29;20458;-79
2024/02/14 02:57:56;;;;;;;1.53;0.70;;;4.10;99.90;;;;;;4937607;29;20512;-79
2024/02/14 03:00:22;;;;;;;0.70;0.60;;;4.20;99.90;;;;;;4936547;29;20474;-79
2024/02/14 03:02:49;;;;;;;1.57;0.73;;;4.30;99.90;;;;;;4936714;29;20459;-79
2024/02/14 03:05:18;;;;;;;3.93;0.93;;;4.40;99.90;;;;;;4936687;29;20443;-79
2024/02/14 03:07:47;;;;;;;0.70;0.70;;;4.50;99.90;;;;;;4936731;29;20584;-79
2024/02/14 03:10:17;;;;;;;0.50;0.50;;;4.50;99.90;;;;;;4936166;29;20499;-78
2024/02/14 03:12:45;;;;;;;1.23;0.73;;;4.50;99.90;;;;;;4936265;29;20454;-78
2024/02/14 03:15:13;;;;;;;0.90;0.73;;;4.60;99.90;;;;;;4936651;29;20454;-78
2024/02/14 03:17:40;;;;;;;1.90;0.90;;;4.70;99.90;;;;;;4936157;29;20452;-78
2024/02/14 03:20:12;;;;;;;0.37;0.37;;;4.70;99.90;;;;;;4936567;29;20470;-78
2024/02/14 03:22:41;;;;;;;0.50;0.50;;;4.70;99.90;;;;;;4937074;29;20475;-78
2024/02/14 03:25:09;;;;;;;0.90;0.90;;;4.80;99.90;;;;;;4936442;29;20447;-78
2024/02/14 03:27:36;;;;;;;1.80;0.83;;;4.80;99.90;;;;;;4936529;29;20975;-78
2024/02/14 03:30:03;;;;;;;0.50;0.50;;;4.70;99.90;;;;;;4936420;29;20526;-78
2024/02/14 03:32:32;;;;;;;0.80;0.80;;;4.80;99.90;;;;;;4935653;29;20507;-78
2024/02/14 03:35:00;;;;;;;0.73;0.73;;;4.70;99.90;;;;;;4936439;29;20469;-78
2024/02/14 03:37:27;;;;;;;1.00;1.00;;;4.60;99.90;;;;;;4936324;29;20451;-78
2024/02/14 03:39:53;;;;;;;0.70;0.70;;;4.60;99.90;;;;;;4936170;29;20467;-78
2024/02/14 03:42:20;;;;;;;0.80;0.77;;;4.50;99.90;;;;;;4935964;29;20940;-78
2024/02/14 03:44:47;;;;;;;5.30;1.33;;;4.50;99.90;;;;;;4936043;29;20933;-78
2024/02/14 03:47:14;;;;;;;2.20;0.67;;;4.50;99.90;;;;;;4936157;29;20827;-79
2024/02/14 03:49:42;;;;;;;2.10;1.30;;;4.50;99.90;;;;;;4936170;29;20501;-78
2024/02/14 03:52:09;;;;;;;0.60;0.60;;;4.50;99.90;;;;;;4935835;29;20447;-78
2024/02/14 03:54:36;;;;;;;0.90;0.90;;;4.50;99.90;;;;;;4935900;29;20933;-78
2024/02/14 03:57:04;;;;;;;0.50;0.40;;;4.60;99.90;;;;;;4936207;29;20834;-78
2024/02/14 03:59:32;;;;;;;1.87;0.80;;;4.70;99.90;;;;;;4936040;29;20474;-78
2024/02/14 04:01:59;;;;;;;0.87;0.60;;;4.90;99.90;;;;;;4936198;29;20562;-78
2024/02/14 04:04:26;;;;;;;1.37;1.00;;;5.00;99.90;;;;;;4936095;29;20820;-78
2024/02/14 04:06:54;;;;;;;0.80;0.70;;;5.00;99.90;;;;;;4936081;29;20443;-78
2024/02/14 04:09:20;;;;;;;0.40;0.40;;;5.10;99.90;;;;;;4935851;29;20494;-78
2024/02/14 04:11:48;;;;;;;1.07;0.50;;;5.10;99.90;;;;;;4935622;29;20483;-78
2024/02/14 04:14:15;;;;;;;1.20;0.93;;;5.10;99.90;;;;;;4935739;29;20502;-78
2024/02/14 04:16:42;;;;;;;0.70;0.70;;;5.10;99.90;;;;;;4935991;29;20455;-78
2024/02/14 04:19:10;;;;;;;0.70;0.70;;;5.10;99.90;;;;;;4936090;29;20826;-78
2024/02/14 04:21:37;;;;;;;0.63;0.63;;;5.10;99.90;;;;;;4935968;29;20542;-78
2024/02/14 04:24:06;;;;;;;0.60;0.57;;;5.00;99.90;;;;;;4935786;29;20446;-78
2024/02/14 04:26:33;;;;;;;2.23;0.60;;;5.10;99.90;;;;;;4935692;29;20978;-78
2024/02/14 04:29:00;;;;;;;0.53;0.53;;;5.00;99.90;;;;;;4935828;29;20451;-79
2024/02/14 04:31:26;;;;;;;0.70;0.70;;;5.00;99.90;;;;;;4935878;29;20458;-79
2024/02/14 04:33:54;;;;;;;1.33;0.60;;;5.00;99.90;;;;;;4935559;29;20506;-78
2024/02/14 04:36:22;;;;;;;1.40;0.70;;;5.00;99.90;;;;;;4935564;29;20541;-79
2024/02/14 04:38:49;;;;;;;1.13;0.40;;;5.00;99.90;;;;;;4935813;29;20486;-79
2024/02/14 04:41:17;;;;;;;0.87;0.50;;;5.00;99.90;;;;;;4935853;29;20454;-78
2024/02/14 04:43:45;;;;;;;0.30;0.30;;;5.00;99.90;;;;;;4937475;29;20462;-79
2024/02/14 04:46:12;;;;;;;0.70;0.70;;;4.90;99.90;;;;;;4939915;29;20531;-79
2024/02/14 04:48:39;;;;;;;0.47;0.40;;;4.90;99.90;;;;;;4939329;29;20953;-78
2024/02/14 04:51:06;;;;;;;0.60;0.40;;;4.90;99.90;;;;;;4939216;29;20495;-78
2024/02/14 04:53:33;;;;;;;0.40;0.40;;;4.80;99.90;;;;;;4957904;28;20439;-78
2024/02/14 04:56:00;;;;;;;0.60;0.40;;;4.90;99.90;;;;;;4939653;29;20458;-78
2024/02/14 04:58:28;;;;;;;0.50;0.47;;;4.80;99.90;;;;;;4938857;29;20436;-78
2024/02/14 05:00:55;;;;;;;1.40;1.30;;;4.80;99.90;;;;;;4939019;29;20478;-79
2024/02/14 05:03:24;;;;;;;0.57;0.57;;;4.80;99.90;;;;;;4939069;29;20471;-79
2024/02/14 05:05:50;;;;;;;0.83;0.60;;;4.90;99.90;;;;;;4938837;29;20538;-79
2024/02/14 05:08:17;;;;;;;0.40;0.40;;;4.90;99.90;;;;;;4938782;29;20455;-79
2024/02/14 05:10:45;;;;;;;0.30;0.30;;;5.00;99.90;;;;;;4938279;29;21024;-79
2024/02/14 05:13:13;;;;;;;0.50;0.50;;;5.20;99.90;;;;;;4938482;29;20502;-79
2024/02/14 05:15:41;;;;;;;2.37;0.60;;;5.20;99.90;;;;;;4938460;29;20497;-79
2024/02/14 05:18:08;;;;;;;0.43;0.43;;;5.40;99.90;;;;;;4938708;29;20501;-78
2024/02/14 05:20:35;;;;;;;0.50;0.33;;;5.40;99.90;;;;;;4938271;29;20471;-78
2024/02/14 05:23:03;;;;;;;0.30;0.30;;;5.50;99.90;;;;;;4938410;29;20439;-78
2024/02/14 05:25:32;;;;;;;1.20;0.80;;;5.50;99.90;;;;;;4938320;29;20969;-79
2024/02/14 05:27:59;;;;;;;0.50;0.43;;;5.60;99.90;;;;;;4938499;29;20461;-79
2024/02/14 05:30:27;;;;;;;1.23;0.30;;;5.60;99.90;;;;;;4938118;29;20568;-79
2024/02/14 05:32:55;;;;;;;0.40;0.30;;;5.70;99.90;;;;;;4938146;29;20443;-78
2024/02/14 05:35:23;;;;;;;0.50;0.50;;;5.70;99.90;;;;;;4938382;29;20452;-78
2024/02/14 05:37:51;;;;;;;0.47;0.40;;;5.70;99.90;;;;;;4938818;29;20456;-78
2024/02/14 05:40:17;;;;;;;0.40;0.40;;;5.80;99.90;;;;;;4938852;29;20471;-78
2024/02/14 05:42:44;;;;;;;2.63;0.60;;;5.70;99.90;;;;;;4938698;29;20818;-78
2024/02/14 05:45:11;;;;;;;0.47;0.40;;;5.80;99.90;;;;;;4938949;29;20454;-79
2024/02/14 05:47:39;;;;;;;0.40;0.40;;;5.90;99.90;;;;;;4938275;29;20447;-79
2024/02/14 05:50:11;;;;;;;0.73;0.37;;;5.90;99.90;;;;;;4938274;29;20523;-78
2024/02/14 05:52:38;;;;;;;0.60;0.60;;;5.80;99.90;;;;;;4938224;29;20454;-79
2024/02/14 05:55:05;;;;;;;0.40;0.30;;;5.80;99.90;;;;;;4937580;29;20463;-79
2024/02/14 05:57:32;;;;;;;0.30;0.30;;;5.70;99.90;;;;;;4937870;29;20491;-79
2024/02/14 05:59:59;;;;;;;0.60;0.33;;;5.70;99.90;;;;;;4937668;29;21007;-78
2024/02/14 06:02:25;;;;;;;0.50;0.50;;;5.60;99.90;;;;;;4938034;29;20456;-79
2024/02/14 06:04:52;;;;;;;0.40;0.30;;;5.60;99.90;;;;;;4937677;29;20956;-79
2024/02/14 06:07:20;;;;;;;1.03;0.93;;;5.50;99.90;;;;;;4938019;29;20454;-78
2024/02/14 06:09:47;;;;;;;0.50;0.50;;;5.50;99.90;;;;;;4937713;29;20503;-79
2024/02/14 06:12:14;;;;;;;1.53;0.43;;;5.50;99.90;;;;;;4937471;29;20444;-79
2024/02/14 06:14:40;;;;;;;0.83;0.40;;;5.50;99.90;;;;;;4937521;29;20440;-79
2024/02/14 06:17:07;;;;;;;1.33;0.60;;;5.50;99.90;;;;;;4937761;29;20454;-79
2024/02/14 06:19:34;;;;;;;0.80;0.80;;;5.60;99.90;;;;;;4937704;29;20467;-79
2024/02/14 06:22:01;;;;;;;16.27;0.80;;;5.50;99.90;;;;;;4937563;29;20459;-79
2024/02/14 06:24:29;;;;;;;0.50;0.50;;;5.60;99.90;;;;;;4937705;29;20451;-79
2024/02/14 06:26:56;;;;;;;0.40;0.30;;;5.50;99.90;;;;;;4937941;29;20950;-79
2024/02/14 06:29:23;;;;;;;0.77;0.67;;;5.50;99.90;;;;;;4937212;29;21097;-78
2024/02/14 06:31:50;;;;;;;0.50;0.50;;;5.50;99.90;;;;;;4937411;29;20460;-78
2024/02/14 06:34:18;;;;;;;1.90;0.50;;;5.50;99.90;;;;;;4937601;29;20507;-79
2024/02/14 06:36:45;;;;;;;0.57;0.53;;;5.50;99.90;;;;;;4937369;29;20830;-79
2024/02/14 06:39:11;;;;;;;0.40;0.40;;;5.60;99.90;;;;;;4937254;29;20467;-79
2024/02/14 06:41:40;;;;;;;0.53;0.50;;;5.60;99.90;;;;;;4937955;29;20547;-79
2024/02/14 06:44:07;;;;;;;2.93;0.50;;;5.60;99.90;;;;;;4938102;29;20479;-79
2024/02/14 06:46:35;;;;;;;0.67;0.40;;;5.60;99.90;;;;;;4937770;29;20455;-79
2024/02/14 06:49:02;;;;;;;0.30;0.30;;;5.60;99.90;;;;;;4938058;29;20506;-79
2024/02/14 06:51:29;;;;;;;0.40;0.40;;;5.60;99.90;;;;;;4937553;29;20487;-79
2024/02/14 06:53:57;;;;;;;0.40;0.40;;;5.60;99.90;;;;;;4938036;29;20488;-79
2024/02/14 06:56:24;;;;;;;0.50;0.50;;;5.50;99.90;;;;;;4938057;29;20462;-79
2024/02/14 06:58:59;;;;;;;0.50;0.50;;;5.60;99.90;;;;;;4937583;29;20458;-79
2024/02/14 07:01:26;;;;;;;1.70;0.63;;;5.60;99.90;;;;;;4938089;29;20435;-79
2024/02/14 07:03:53;;;;;;;0.90;0.50;;;5.60;99.90;;;;;;4938020;29;20453;-79
2024/02/14 07:06:20;;;;;;;0.60;0.57;;;5.60;99.90;;;;;;4937086;29;20443;-79
2024/02/14 07:08:48;;;;;;;1.23;0.60;;;5.60;99.90;;;;;;4937317;29;20450;-79
2024/02/14 07:11:15;;;;;;;0.30;0.30;;;5.70;99.90;;;;;;4955418;28;20513;-80
2024/02/14 07:13:42;;;;;;;0.40;0.40;;;5.70;99.90;;;;;;4938189;29;20487;-78
2024/02/14 07:16:10;;;;;;;0.30;0.30;;;5.70;99.90;;;;;;4937433;29;20458;-79
2024/02/14 07:18:37;;;;;;;0.90;0.57;;;5.80;99.90;;;;;;4936811;29;20462;-78
2024/02/14 07:21:05;;;;;;;0.53;0.53;;;5.90;99.90;;;;;;4936406;29;20999;-79
2024/02/14 07:23:32;;;;;;;0.30;0.30;;;5.90;99.90;;;;;;4936337;29;20451;-79
2024/02/14 07:26:00;;;;;;;0.40;0.30;;;6.00;99.90;;;;;;4936541;29;20451;-82
2024/02/14 07:28:27;;;;;;;0.50;0.50;;;6.10;99.90;;;;;;4936547;29;20518;-79
2024/02/14 07:30:54;;;;;;;0.50;0.50;;;6.10;99.90;;;;;;4936448;29;20487;-79
2024/02/14 07:33:22;;;;;;;0.80;0.40;;;6.30;99.90;;;;;;4936605;29;20957;-79
2024/02/14 07:35:49;;;;;;;0.40;0.30;;;6.30;99.90;;;;;;4936894;29;20438;-79
2024/02/14 07:38:17;;;;;;;0.80;0.70;;;6.40;99.90;;;;;;4936535;29;20804;-79
2024/02/14 07:40:44;;;;;;;0.50;0.43;;;6.50;99.90;;;;;;4936427;29;20478;-79
2024/02/14 07:43:11;;;;;;;0.40;0.40;;;6.60;99.90;;;;;;4936437;29;20455;-79
2024/02/14 07:45:38;;;;;;;0.40;0.40;;;6.80;99.90;;;;;;4936690;29;20462;-79
2024/02/14 07:48:05;;;;;;;0.53;0.53;;;6.90;99.90;;;;;;4936221;29;20946;-79
2024/02/14 07:50:33;;;;;;;1.03;0.40;;;6.90;99.90;;;;;;4936332;29;20604;-79
2024/02/14 07:53:00;;;;;;;1.17;0.60;;;7.00;99.90;;;;;;4936482;29;20451;-79
2024/02/14 07:55:27;;;;;;;0.40;0.40;;;7.10;99.90;;;;;;4936561;29;20477;-79
2024/02/14 07:57:54;;;;;;;0.40;0.40;;;7.20;99.90;;;;;;4936161;29;20459;-79
2024/02/14 08:00:23;;;;;;;0.77;0.40;;;7.50;99.90;;;;;;4936347;29;20475;-79
2024/02/14 08:02:50;;;;;;;0.87;0.67;;;7.60;99.90;;;;;;4936560;29;20475;-79
2024/02/14 08:05:16;;;;;;;0.33;0.33;;;7.70;99.90;;;;;;4935866;29;20451;-79
2024/02/14 08:07:45;;;;;;;0.40;0.40;;;7.80;99.90;;;;;;4936291;29;20823;-79
2024/02/14 08:10:13;;;;;;;0.60;0.43;;;7.90;99.90;;;;;;4935733;29;20988;-79
2024/02/14 08:12:39;;;;;;;0.70;0.50;;;8.00;99.90;;;;;;4936291;29;20783;-79
2024/02/14 08:15:09;;;;;;;0.43;0.40;;;8.10;99.90;;;;;;4936225;29;20443;-79
2024/02/14 08:17:36;;;;;;;0.40;0.40;;;8.10;99.90;;;;;;4936600;29;20443;-79
2024/02/14 08:20:04;;;;;;;3.90;0.40;;;8.20;99.90;;;;;;4940746;29;20579;-79
2024/02/14 08:22:31;;;;;;;0.40;0.30;;;8.20;99.90;;;;;;4940563;29;20482;-79
2024/02/14 08:24:59;;;;;;;0.50;0.40;;;8.30;99.90;;;;;;4941122;29;20458;-79
2024/02/14 08:27:27;;;;;;;0.40;0.40;;;8.40;99.90;;;;;;4941070;29;20451;-79
2024/02/14 08:29:54;;;;;;;0.40;0.40;;;8.60;99.90;;;;;;4941249;29;20502;-79
2024/02/14 08:32:21;;;;;;;0.47;0.47;;;8.90;99.90;;;;;;4940617;29;20851;-78
2024/02/14 08:34:47;;;;;;;0.40;0.40;;;9.00;99.90;;;;;;4940801;29;20447;-78
2024/02/14 08:37:14;;;;;;;0.40;0.40;;;9.00;99.90;;;;;;4940933;29;20451;-78
2024/02/14 08:39:41;;;;;;;1.73;0.50;;;9.20;99.90;;;;;;4940715;29;20480;-78
2024/02/14 08:42:09;;;;;;;0.60;0.40;;;9.20;99.90;;;;;;4940898;29;20455;-78
2024/02/14 08:44:37;;;;;;;6.70;0.63;;;9.20;99.90;;;;;;4939867;29;20439;-78
2024/02/14 08:47:04;;;;;;;0.57;0.40;;;9.30;99.90;;;;;;4940166;29;20805;-79
2024/02/14 08:49:31;;;;;;;0.40;0.30;;;9.30;99.90;;;;;;4939992;29;20467;-79
2024/02/14 08:51:58;;;;;;;0.40;0.40;;;9.30;99.90;;;;;;4939864;29;20483;-79
2024/02/14 08:54:24;;;;;;;0.70;0.50;;;9.30;99.90;;;;;;4939898;29;20444;-79
2024/02/14 08:56:55;;;;;;;0.50;0.40;;;9.30;99.90;;;;;;4942805;29;20455;-78
2024/02/14 08:59:23;;;;;;;0.40;0.40;;;9.20;99.90;;;;;;4946983;29;20482;-79
2024/02/14 09:01:50;;;;;;;0.50;0.40;;;9.20;99.90;;;;;;4947805;29;20443;-79
2024/02/14 09:04:16;;;;;;;0.50;0.50;;;9.20;99.90;;;;;;4948278;29;20461;-79
2024/02/14 09:06:43;;;;;;;0.80;0.43;;;9.20;99.90;;;;;;4947958;29;20435;-79
2024/02/14 09:09:10;;;;;;;0.50;0.50;;;9.10;99.90;;;;;;4945193;29;20822;-78
2024/02/14 09:11:37;;;;;;;1.37;0.50;;;9.10;99.90;;;;;;4940768;29;20495;-79
2024/02/14 09:14:06;;;;;;;1.53;0.33;;;9.10;99.90;;;;;;4940846;29;20443;-79
2024/02/14 09:16:34;;;;;;;0.40;0.40;;;9.20;99.90;;;;;;4940448;29;20455;-79
2024/02/14 09:19:02;;;;;;;2.00;0.67;;;9.40;99.90;;;;;;4940684;29;20455;-79
2024/02/14 09:21:28;;;;;;;1.43;0.40;;;9.50;99.90;;;;;;4940738;29;20455;-78
2024/02/14 09:23:55;;;;;;;0.40;0.30;;;9.70;99.90;;;;;;4944947;29;20454;-78
2024/02/14 09:26:22;;;;;;;2.00;0.40;;;9.70;99.90;;;;;;4954791;28;20546;-78
2024/02/14 09:28:49;;;;;;;0.60;0.60;;;9.60;99.90;;;;;;4938861;29;20466;-78
2024/02/14 09:31:19;;;;;;;0.67;0.50;;;9.70;99.90;;;;;;4937527;29;20483;-78
2024/02/14 09:33:48;;;;;;;4.00;0.50;;;9.70;99.90;;;;;;4938592;29;20470;-78
2024/02/14 09:36:15;;;;;;;0.50;0.40;;;9.80;99.90;;;;;;4938642;29;20890;-78
2024/02/14 09:38:42;;;;;;;0.50;0.40;;;10.10;99.90;;;;;;4938371;29;20979;-78
2024/02/14 09:41:16;;;;;;;0.77;0.60;;;10.40;99.90;;;;;;4938265;29;21012;-78
2024/02/14 09:43:45;;;;;;;0.97;0.53;;;10.50;99.90;;;;;;4938711;29;20491;-78
2024/02/14 09:46:14;;;;;;;0.40;0.30;;;10.80;99.90;;;;;;4938665;29;20989;-79
2024/02/14 09:48:44;;;;;;;0.60;0.60;;;10.80;99.90;;;;;;4938460;29;20451;-79
2024/02/14 09:51:12;;;;;;;0.77;0.50;;;10.70;99.90;;;;;;4938333;29;20486;-78
2024/02/14 09:53:40;;;;;;;0.43;0.43;;;10.70;99.90;;;;;;4938532;29;20435;-78
2024/02/14 09:56:09;;;;;;;0.73;0.40;;;10.70;99.90;;;;;;4938300;29;20447;-78
2024/02/14 09:58:37;;;;;;;0.30;0.30;;;10.90;99.90;;;;;;4938216;29;20455;-78
2024/02/14 10:01:04;;;;;;;2.07;0.60;;;11.10;99.90;;;;;;4938326;29;21052;-80
2024/02/14 10:03:31;;;;;;;0.40;0.40;;;11.30;99.90;;;;;;4938364;29;20462;-78
2024/02/14 10:05:58;;;;;;;0.30;0.30;;;11.40;99.90;;;;;;4938212;29;20447;-78
2024/02/14 10:08:27;;;;;;;0.47;0.47;;;11.40;99.90;;;;;;4938098;29;20447;-78
2024/02/14 10:10:54;;;;;;;0.47;0.40;;;11.30;99.90;;;;;;4937918;29;20515;-78
2024/02/14 10:13:20;;;;;;;0.40;0.40;;;11.50;99.90;;;;;;4938154;29;20542;-78
2024/02/14 10:15:48;;;;;;;0.50;0.50;;;11.80;99.90;;;;;;4938915;29;20462;-78
2024/02/14 10:18:16;;;;;;;0.60;0.50;;;12.40;99.90;;;;;;4938675;29;20444;-78
2024/02/14 10:20:53;;;;;;;0.53;0.50;;;13.10;99.90;;;;;;4939068;29;20904;-79
2024/02/14 10:23:19;;;;;;;1.63;0.50;;;13.60;99.90;;;;;;4938609;29;20442;-78
2024/02/14 10:25:49;;;;;;;0.40;0.40;;;14.80;99.90;;;;;;4941331;29;20897;-78
2024/02/14 10:28:16;;;;;;;0.70;0.53;;;15.60;99.90;;;;;;4944726;29;20451;-78
2024/02/14 10:30:46;;;;;;;0.50;0.40;;;16.30;99.90;;;;;;4944866;29;20509;-78
2024/02/14 10:33:13;;;;;;;0.40;0.40;;;17.30;99.90;;;;;;4945415;29;20450;-79
2024/02/14 10:35:42;;;;;;;0.53;0.53;;;17.60;99.90;;;;;;4941733;29;20454;-78
2024/02/14 10:38:09;;;;;;;0.60;0.50;;;17.60;99.90;;;;;;4939861;29;20447;-79
2024/02/14 10:40:38;;;;;;;1.27;0.40;;;17.70;99.90;;;;;;4939322;29;20464;-79
2024/02/14 10:43:06;;;;;;;0.80;0.70;;;17.60;99.90;;;;;;4939489;29;20487;-78
2024/02/14 10:45:33;;;;;;;0.50;0.40;;;17.00;99.90;;;;;;4939291;29;20454;-78
2024/02/14 10:48:01;;;;;;;0.50;0.40;;;16.90;99.90;;;;;;4938910;29;20453;-78
2024/02/14 10:50:33;;;;;;;0.57;0.57;;;16.80;99.90;;;;;;4939870;29;20497;-78
2024/02/14 10:53:04;;;;;;;0.40;0.40;;;16.60;99.90;;;;;;4937438;29;20474;-77
2024/02/14 10:55:32;;;;;;;0.80;0.40;;;16.10;99.90;;;;;;4937438;29;20431;-77
2024/02/14 10:57:59;;;;;;;0.40;0.30;;;15.80;99.90;;;;;;4937352;29;20456;-77
2024/02/14 11:00:27;;;;;;;0.47;0.40;;;15.70;99.90;;;;;;4937191;29;20467;-77
2024/02/14 11:02:55;;;;;;;0.60;0.40;;;15.50;99.90;;;;;;4937063;29;20455;-77
2024/02/14 11:05:23;;;;;;;4.10;0.40;;;15.50;99.90;;;;;;4937222;29;20432;-77
2024/02/14 11:07:52;;;;;;;7.63;0.57;;;15.40;99.90;;;;;;4937082;29;20458;-77
2024/02/14 11:10:21;;;;;;;0.43;0.43;;;15.20;99.90;;;;;;4936722;29;20495;-77
2024/02/14 11:12:50;;;;;;;1.77;0.70;;;14.90;99.90;;;;;;4936679;29;20491;-77
2024/02/14 11:15:20;;;;;;;0.70;0.70;;;14.60;99.90;;;;;;4937152;29;20451;-78
2024/02/14 11:17:51;;;;;;;0.50;0.40;;;14.40;99.90;;;;;;4936863;29;20455;-78
2024/02/14 11:20:19;;;;;;;0.50;0.40;;;14.20;99.90;;;;;;4936765;29;20467;-78
2024/02/14 11:22:57;;;;;;;0.90;0.40;;;14.00;99.90;;;;;;4936788;29;20446;-77
2024/02/14 11:25:29;;;;;;;1.67;0.40;;;13.70;99.90;;;;;;4936904;29;20454;-77
2024/02/14 11:27:56;;;;;;;0.40;0.30;;;13.50;99.90;;;;;;4936961;29;20478;-77
2024/02/14 11:30:34;;;;;;;0.43;0.43;;;13.30;99.90;;;;;;4936905;29;20510;-77
2024/02/14 11:33:19;;;;;;;0.30;0.30;;;13.30;99.90;;;;;;4937035;29;20871;-77
2024/02/14 11:35:49;;;;;;;1.23;0.40;;;13.30;99.90;;;;;;4936996;29;20506;-77
2024/02/14 11:38:16;;;;;;;0.50;0.40;;;13.20;99.90;;;;;;4936909;29;20462;-77
2024/02/14 11:40:43;;;;;;;0.43;0.40;;;13.30;99.90;;;;;;4936941;29;20506;-77
2024/02/14 11:43:14;;;;;;;0.50;0.50;;;13.10;99.90;;;;;;4946741;29;20554;-77
2024/02/14 11:45:42;;;;;;;0.93;0.60;;;13.10;99.90;;;;;;4936348;29;20432;-77
2024/02/14 11:48:10;;;;;;;1.33;0.50;;;13.30;99.90;;;;;;4936431;29;20800;-83
2024/02/14 11:50:40;;;;;;;0.40;0.30;;;13.30;99.90;;;;;;4936600;29;20471;-83
2024/02/14 11:53:08;;;;;;;0.40;0.40;;;13.10;99.90;;;;;;4937073;29;20474;-76
2024/02/14 11:55:37;;;;;;;5.70;0.50;;;13.20;99.90;;;;;;4939251;29;20455;-77
2024/02/14 11:58:04;;;;;;;1.43;0.50;;;13.20;99.90;;;;;;4938927;29;20495;-77
2024/02/14 12:00:30;;;;;;;0.70;0.50;;;13.30;99.90;;;;;;4940064;29;20834;-77
2024/02/14 12:02:57;;;;;;;0.60;0.30;;;13.10;99.90;;;;;;4939878;29;20448;-77
2024/02/14 12:05:24;;;;;;;0.60;0.40;;;13.00;99.90;;;;;;4940806;29;20443;-77
2024/02/14 12:07:53;;;;;;;0.30;0.30;;;13.00;99.90;;;;;;4939986;29;20816;-77
2024/02/14 12:10:21;;;;;;;0.67;0.43;;;13.00;99.90;;;;;;4939434;29;20558;-77
2024/02/14 12:12:48;;;;;;;0.70;0.40;;;12.70;99.90;;;;;;4939592;29;21018;-77
2024/02/14 12:15:15;;;;;;;0.40;0.30;;;12.60;99.90;;;;;;4939824;29;20449;-77
2024/02/14 12:17:42;;;;;;;2.10;0.43;;;12.60;99.90;;;;;;4939728;29;20447;-77
2024/02/14 12:20:11;;;;;;;0.40;0.40;;;12.50;99.90;;;;;;4940255;29;20483;-77
2024/02/14 12:22:38;;;;;;;0.43;0.33;;;12.50;99.90;;;;;;4940252;29;20481;-77
2024/02/14 12:25:07;;;;;;;0.37;0.33;;;12.40;99.90;;;;;;4939798;29;20864;-77
2024/02/14 12:27:34;;;;;;;0.40;0.33;;;12.50;99.90;;;;;;4939646;29;20457;-77
2024/02/14 12:30:03;;;;;;;0.40;0.30;;;12.60;99.90;;;;;;4939669;29;20827;-77
2024/02/14 12:32:30;;;;;;;1.17;0.30;;;12.80;99.90;;;;;;4939587;29;20485;-77
2024/02/14 12:34:57;;;;;;;0.40;0.30;;;12.90;99.90;;;;;;4940862;29;20447;-78
2024/02/14 12:37:24;;;;;;;0.40;0.40;;;13.00;99.90;;;;;;4939811;29;20462;-78
2024/02/14 12:39:50;;;;;;;0.40;0.30;;;13.20;99.90;;;;;;4939437;29;20841;-78
2024/02/14 12:42:24;;;;;;;0.40;0.30;;;13.10;99.90;;;;;;4939295;29;20447;-78
2024/02/14 12:44:52;;;;;;;0.30;0.30;;;13.10;99.90;;;;;;4939275;29;20435;-77
2024/02/14 12:47:20;;;;;;;0.40;0.37;;;13.00;99.90;;;;;;4939292;29;20533;-77
2024/02/14 12:49:47;;;;;;;0.40;0.30;;;12.90;99.90;;;;;;4939267;29;20474;-77
2024/02/14 12:52:14;;;;;;;0.40;0.30;;;12.90;99.90;;;;;;4938909;29;21012;-77
2024/02/14 12:54:40;;;;;;;1.57;0.50;;;12.90;99.90;;;;;;4938857;29;20439;-77
2024/02/14 12:57:07;;;;;;;0.40;0.30;;;13.00;99.90;;;;;;4938866;29;20457;-78